createdAt,value
2019-05-26T00:00:36.637Z,79.80
2019-05-26T00:03:07.782Z,80.14
2019-05-26T00:05:38.734Z,80.10
2019-05-26T00:08:09.720Z,80.31
2019-05-26T00:10:41.368Z,80.54
2019-05-26T00:13:12.403Z,80.59
2019-05-26T00:15:43.522Z,80.69
2019-05-26T00:18:14.511Z,80.84
2019-05-26T00:20:45.648Z,80.74
2019-05-26T00:23:16.643Z,80.62
2019-05-26T00:25:47.708Z,80.58
2019-05-26T00:28:18.835Z,80.49
2019-05-26T00:30:49.805Z,80.43
2019-05-26T00:33:20.930Z,80.48
2019-05-26T00:35:52.224Z,80.49
2019-05-26T00:38:23.295Z,80.61
2019-05-26T00:40:54.393Z,80.59
2019-05-26T00:43:25.376Z,80.59
2019-05-26T00:45:56.928Z,80.56
2019-05-26T00:48:28.072Z,80.45
2019-05-26T00:50:59.152Z,80.51
2019-05-26T00:53:30.305Z,80.56
2019-05-26T00:56:01.440Z,80.62
2019-05-26T00:58:32.508Z,80.66
2019-05-26T01:01:07.102Z,80.75
2019-05-26T01:03:38.246Z,80.77
2019-05-26T01:06:09.429Z,80.87
2019-05-26T01:08:40.532Z,81.12
2019-05-26T01:11:11.953Z,81.32
2019-05-26T01:13:42.963Z,81.62
2019-05-26T01:16:14.036Z,81.69
2019-05-26T01:18:45.069Z,81.94
2019-05-26T01:21:16.155Z,82.06
2019-05-26T01:23:47.299Z,82.26
2019-05-26T01:26:18.453Z,82.45
2019-05-26T01:28:50.792Z,82.48
2019-05-26T01:31:22.002Z,82.62
2019-05-26T01:33:53.229Z,82.80
2019-05-26T01:36:24.372Z,82.80
2019-05-26T01:38:55.726Z,82.91
2019-05-26T01:41:26.830Z,82.85
2019-05-26T01:43:57.970Z,82.72
2019-05-26T01:46:29.058Z,82.70
2019-05-26T01:49:00.154Z,82.61
2019-05-26T01:51:31.202Z,82.55
2019-05-26T01:54:02.363Z,82.41
2019-05-26T01:56:33.421Z,82.27
2019-05-26T01:59:04.640Z,82.16
2019-05-26T02:01:35.842Z,81.89
2019-05-26T02:04:07.136Z,81.68
2019-05-26T02:06:38.381Z,81.61
2019-05-26T02:09:09.662Z,81.53
2019-05-26T02:11:40.690Z,81.33
2019-05-26T02:14:14.448Z,81.22
2019-05-26T02:16:44.871Z,81.12
2019-05-26T02:19:16.015Z,81.02
2019-05-26T02:21:47.125Z,80.74
2019-05-26T02:24:18.231Z,79.86
2019-05-26T02:26:49.350Z,78.59
2019-05-26T02:29:20.478Z,76.78
2019-05-26T02:31:51.538Z,75.47
2019-05-26T02:34:22.671Z,74.83
2019-05-26T02:36:54.932Z,73.96
2019-05-26T02:39:26.159Z,72.70
2019-05-26T02:41:57.231Z,70.97
2019-05-26T02:44:28.204Z,69.29
2019-05-26T02:46:59.216Z,68.46
2019-05-26T02:49:30.259Z,68.82
2019-05-26T02:52:01.487Z,69.44
2019-05-26T02:54:32.667Z,69.71
2019-05-26T02:57:03.817Z,70.11
2019-05-26T02:59:34.809Z,70.07
2019-05-26T03:02:06.258Z,68.38
2019-05-26T03:04:37.405Z,66.06
2019-05-26T03:07:09.101Z,62.18
2019-05-26T03:09:40.299Z,58.56
2019-05-26T03:12:11.927Z,54.63
2019-05-26T03:14:44.676Z,51.81
2019-05-26T03:17:19.342Z,51.88
2019-05-26T03:19:51.818Z,52.33
2019-05-26T03:22:23.917Z,53.97
2019-05-26T03:24:54.965Z,55.76
2019-05-26T03:27:26.094Z,58.03
2019-05-26T03:29:57.118Z,59.46
2019-05-26T03:32:28.208Z,60.60
2019-05-26T03:34:59.152Z,61.35
2019-05-26T03:37:30.566Z,62.11
2019-05-26T03:40:03.010Z,63.23
2019-05-26T03:42:34.083Z,63.86
2019-05-26T03:45:06.895Z,64.21
2019-05-26T03:47:37.974Z,64.15
2019-05-26T03:50:09.140Z,64.66
2019-05-26T03:52:40.150Z,64.91
2019-05-26T03:55:11.695Z,64.90
2019-05-26T03:57:42.721Z,64.93
2019-05-26T04:00:14.190Z,65.04
2019-05-26T04:02:46.743Z,65.14
2019-05-26T04:05:17.919Z,65.25
2019-05-26T04:07:49.058Z,65.08
2019-05-26T04:10:21.849Z,64.79
2019-05-26T04:12:53.029Z,64.86
2019-05-26T04:15:24.261Z,65.20
2019-05-26T04:17:55.290Z,65.18
2019-05-26T04:20:26.722Z,65.30
2019-05-26T04:22:57.967Z,65.48
2019-05-26T04:25:28.988Z,65.78
2019-05-26T04:28:01.505Z,65.24
2019-05-26T04:30:32.482Z,65.30
2019-05-26T04:33:03.571Z,65.05
2019-05-26T04:35:34.626Z,64.76
2019-05-26T04:38:05.744Z,64.37
2019-05-26T04:40:38.920Z,64.08
2019-05-26T04:43:14.498Z,63.55
2019-05-26T04:45:42.696Z,63.41
2019-05-26T04:48:14.047Z,62.97
2019-05-26T04:50:45.201Z,62.43
2019-05-26T04:53:16.234Z,61.75
2019-05-26T04:55:47.242Z,60.97
2019-05-26T04:58:18.350Z,59.73
2019-05-26T05:00:49.456Z,58.44
2019-05-26T05:03:20.607Z,57.68
2019-05-26T05:05:51.771Z,57.31
2019-05-26T05:08:22.871Z,56.90
2019-05-26T05:10:54.118Z,56.05
2019-05-26T05:13:25.326Z,55.70
2019-05-26T05:15:56.363Z,55.32
2019-05-26T05:18:27.403Z,54.34
2019-05-26T05:20:58.407Z,51.42
2019-05-26T05:23:29.541Z,48.25
2019-05-26T05:26:00.657Z,47.04
2019-05-26T05:28:31.717Z,45.10
2019-05-26T05:31:02.749Z,43.28
2019-05-26T05:33:33.747Z,41.17
2019-05-26T05:36:04.736Z,40.88
2019-05-26T05:38:35.756Z,40.34
2019-05-26T05:41:06.796Z,40.58
2019-05-26T05:43:37.854Z,40.03
2019-05-26T05:46:08.945Z,39.85
2019-05-26T05:48:39.960Z,39.83
2019-05-26T05:51:11.055Z,39.18
2019-05-26T05:53:42.176Z,36.92
2019-05-26T05:56:13.272Z,33.91
2019-05-26T05:58:44.354Z,33.12
2019-05-26T06:01:15.470Z,34.34
2019-05-26T06:03:46.564Z,35.75
2019-05-26T06:06:17.792Z,37.11
2019-05-26T06:08:51.400Z,38.24
2019-05-26T06:11:24.445Z,39.20
2019-05-26T06:13:56.726Z,40.09
2019-05-26T06:16:29.637Z,41.29
2019-05-26T06:19:00.990Z,42.33
2019-05-26T06:21:32.250Z,43.31
2019-05-26T06:24:04.900Z,43.62
2019-05-26T06:26:36.304Z,43.76
2019-05-26T06:29:13.980Z,44.40
2019-05-26T06:31:45.542Z,43.52
2019-05-26T06:34:26.653Z,42.82
2019-05-26T06:36:56.158Z,42.26
2019-05-26T06:39:27.806Z,42.23
2019-05-26T06:41:59.798Z,42.64
2019-05-26T06:44:30.837Z,43.77
2019-05-26T06:47:01.924Z,44.75
2019-05-26T06:49:33.035Z,45.83
2019-05-26T06:52:04.253Z,45.33
2019-05-26T06:54:35.318Z,43.57
2019-05-26T06:57:06.422Z,41.30
2019-05-26T06:59:37.499Z,38.40
2019-05-26T07:02:08.464Z,36.11
2019-05-26T07:04:39.520Z,34.55
2019-05-26T07:07:10.616Z,32.17
2019-05-26T07:09:41.627Z,31.80
2019-05-26T07:12:12.598Z,32.23
2019-05-26T07:14:43.810Z,33.70
2019-05-26T07:17:14.812Z,35.29
2019-05-26T07:19:45.917Z,35.06
2019-05-26T07:22:17.228Z,35.89
2019-05-26T07:24:48.367Z,36.90
2019-05-26T07:27:19.572Z,38.18
2019-05-26T07:29:54.431Z,39.44
2019-05-26T07:32:31.040Z,40.32
2019-05-26T07:35:02.073Z,41.17
2019-05-26T07:37:33.208Z,42.13
2019-05-26T07:40:04.967Z,42.85
2019-05-26T07:42:36.203Z,42.66
2019-05-26T07:45:08.141Z,42.88
2019-05-26T07:47:39.484Z,42.84
2019-05-26T07:50:13.214Z,43.51
2019-05-26T07:52:46.900Z,43.65
2019-05-26T07:55:18.762Z,44.15
2019-05-26T07:57:50.090Z,43.49
2019-05-26T08:00:28.036Z,43.52
2019-05-26T08:02:59.100Z,44.31
2019-05-26T08:05:30.186Z,44.42
2019-05-26T08:08:12.233Z,44.66
2019-05-26T08:10:34.864Z,44.25
2019-05-26T08:13:07.924Z,43.93
2019-05-26T08:15:39.993Z,44.76
2019-05-26T08:18:12.261Z,44.98
2019-05-26T08:20:43.694Z,44.79
2019-05-26T08:23:15.050Z,43.46
2019-05-26T08:25:46.108Z,42.50
2019-05-26T08:28:17.249Z,42.37
2019-05-26T08:30:48.260Z,42.65
2019-05-26T08:33:19.249Z,42.57
2019-05-26T08:35:50.259Z,42.30
2019-05-26T08:38:21.301Z,41.41
2019-05-26T08:40:52.254Z,41.88
2019-05-26T08:43:23.274Z,41.81
2019-05-26T08:45:54.277Z,41.86
2019-05-26T08:48:25.322Z,42.02
2019-05-26T08:50:56.544Z,41.58
2019-05-26T08:53:27.521Z,42.07
2019-05-26T08:55:58.505Z,42.77
2019-05-26T08:58:29.684Z,43.61
2019-05-26T09:01:00.809Z,44.18
2019-05-26T09:03:31.870Z,44.40
2019-05-26T09:06:02.888Z,44.49
2019-05-26T09:08:34.006Z,43.68
2019-05-26T09:11:05.117Z,42.85
2019-05-26T09:13:36.100Z,44.11
2019-05-26T09:16:07.333Z,44.70
2019-05-26T09:18:38.304Z,45.28
2019-05-26T09:21:09.213Z,45.49
2019-05-26T09:23:40.543Z,45.92
2019-05-26T09:26:11.531Z,45.95
2019-05-26T09:28:43.428Z,45.73
2019-05-26T09:31:14.434Z,45.53
2019-05-26T09:33:45.695Z,44.38
2019-05-26T09:36:17.999Z,43.63
2019-05-26T09:38:50.543Z,44.31
2019-05-26T09:41:21.443Z,46.66
2019-05-26T09:43:52.364Z,48.20
2019-05-26T09:46:23.417Z,49.46
2019-05-26T09:48:54.488Z,51.21
2019-05-26T09:51:25.794Z,51.91
2019-05-26T09:54:01.837Z,52.43
2019-05-26T09:56:40.152Z,52.88
2019-05-26T09:59:12.891Z,52.23
2019-05-26T10:01:43.927Z,51.31
2019-05-26T10:04:15.626Z,51.39
2019-05-26T10:06:46.620Z,50.93
2019-05-26T10:09:17.614Z,49.90
2019-05-26T10:11:48.668Z,49.05
2019-05-26T10:14:19.833Z,48.09
2019-05-26T10:16:51.015Z,47.33
2019-05-26T10:19:22.137Z,46.65
2019-05-26T10:21:59.904Z,45.39
2019-05-26T10:24:38.521Z,44.91
2019-05-26T10:27:09.610Z,45.46
2019-05-26T10:29:42.389Z,46.54
2019-05-26T10:32:16.260Z,46.89
2019-05-26T10:34:48.193Z,46.53
2019-05-26T10:37:20.870Z,46.57
2019-05-26T10:39:55.010Z,46.62
2019-05-26T10:42:26.029Z,46.54
2019-05-26T10:44:56.988Z,46.81
2019-05-26T10:47:27.960Z,49.94
2019-05-26T10:49:58.952Z,52.20
2019-05-26T10:52:29.885Z,53.74
2019-05-26T10:55:00.963Z,54.69
2019-05-26T10:57:32.021Z,55.44
2019-05-26T11:00:03.116Z,55.87
2019-05-26T11:02:34.133Z,55.69
2019-05-26T11:05:06.599Z,56.18
2019-05-26T11:07:37.646Z,55.65
2019-05-26T11:10:08.898Z,53.59
2019-05-26T11:12:39.952Z,53.33
2019-05-26T11:15:11.426Z,52.42
2019-05-26T11:17:42.663Z,52.44
2019-05-26T11:20:14.637Z,50.61
2019-05-26T11:22:45.761Z,50.47
2019-05-26T11:25:17.519Z,50.49
2019-05-26T11:27:48.523Z,50.32
2019-05-26T11:30:19.614Z,50.75
2019-05-26T11:32:50.654Z,50.99
2019-05-26T11:35:21.771Z,50.73
2019-05-26T11:37:52.734Z,50.53
2019-05-26T11:40:23.830Z,48.17
2019-05-26T11:42:54.733Z,46.24
2019-05-26T11:45:25.781Z,46.23
2019-05-26T11:47:56.773Z,46.36
2019-05-26T11:50:27.817Z,46.73
2019-05-26T11:52:58.770Z,47.61
2019-05-26T11:55:29.816Z,48.07
2019-05-26T11:58:00.754Z,47.35
2019-05-26T12:00:31.852Z,46.79
2019-05-26T12:03:02.912Z,46.85
2019-05-26T12:05:33.979Z,45.11
2019-05-26T12:08:04.950Z,45.79
2019-05-26T12:10:36.066Z,46.85
2019-05-26T12:13:07.127Z,47.55
2019-05-26T12:15:38.310Z,48.59
2019-05-26T12:18:09.360Z,48.51
2019-05-26T12:20:40.351Z,48.58
2019-05-26T12:23:11.360Z,46.65
2019-05-26T12:25:43.008Z,46.25
2019-05-26T12:28:14.089Z,45.90
2019-05-26T12:30:45.054Z,46.17
2019-05-26T12:33:16.247Z,45.22
2019-05-26T12:35:47.296Z,45.69
2019-05-26T12:38:18.277Z,44.96
2019-05-26T12:40:49.309Z,45.12
2019-05-26T12:43:21.217Z,45.05
2019-05-26T12:45:53.807Z,45.14
2019-05-26T12:48:24.718Z,45.94
2019-05-26T12:50:55.717Z,46.45
2019-05-26T12:53:26.722Z,47.04
2019-05-26T12:55:57.829Z,47.46
2019-05-26T12:58:28.829Z,48.00
2019-05-26T13:00:59.908Z,48.31
2019-05-26T13:03:31.038Z,48.04
2019-05-26T13:06:02.167Z,48.76
2019-05-26T13:08:33.224Z,49.59
2019-05-26T13:11:04.316Z,49.82
2019-05-26T13:13:35.319Z,50.52
2019-05-26T13:16:06.264Z,52.00
2019-05-26T13:18:37.314Z,52.76
2019-05-26T13:21:08.308Z,53.35
2019-05-26T13:23:39.372Z,53.57
2019-05-26T13:26:10.368Z,53.96
2019-05-26T13:28:41.776Z,53.03
2019-05-26T13:31:15.820Z,52.45
2019-05-26T13:33:47.006Z,51.78
2019-05-26T13:36:18.031Z,50.24
2019-05-26T13:38:48.977Z,49.14
2019-05-26T13:41:20.004Z,48.93
2019-05-26T13:43:50.997Z,49.54
2019-05-26T13:46:21.945Z,49.75
2019-05-26T13:48:58.002Z,49.39
2019-05-26T13:51:29.126Z,50.45
2019-05-26T13:54:00.301Z,49.95
2019-05-26T13:56:31.520Z,49.55
2019-05-26T13:59:04.703Z,49.38
2019-05-26T14:01:35.808Z,49.46
2019-05-26T14:04:07.092Z,49.81
2019-05-26T14:06:38.136Z,50.12
2019-05-26T14:09:10.173Z,52.50
2019-05-26T14:11:41.149Z,50.59
2019-05-26T14:14:12.130Z,52.97
2019-05-26T14:16:44.662Z,54.45
2019-05-26T14:19:16.697Z,55.87
2019-05-26T14:21:47.929Z,56.94
2019-05-26T14:24:19.218Z,57.93
2019-05-26T14:26:50.245Z,58.10
2019-05-26T14:29:21.515Z,59.02
2019-05-26T14:31:52.938Z,59.24
2019-05-26T14:34:24.526Z,59.89
2019-05-26T14:36:55.744Z,60.09
2019-05-26T14:39:27.022Z,60.22
2019-05-26T14:41:58.026Z,60.86
2019-05-26T14:44:29.185Z,61.24
2019-05-26T14:47:00.214Z,61.38
2019-05-26T14:49:31.423Z,62.29
2019-05-26T14:52:02.620Z,62.06
2019-05-26T14:54:33.720Z,61.78
2019-05-26T14:57:04.989Z,62.64
2019-05-26T14:59:36.109Z,61.89
2019-05-26T15:02:07.318Z,60.78
2019-05-26T15:04:38.624Z,59.97
2019-05-26T15:07:15.514Z,58.84
2019-05-26T15:09:50.088Z,58.52
2019-05-26T15:12:24.032Z,58.08
2019-05-26T15:14:55.392Z,57.22
2019-05-26T15:17:26.625Z,57.19
2019-05-26T15:19:57.839Z,57.31
2019-05-26T15:22:28.992Z,56.95
2019-05-26T15:25:00.077Z,57.30
2019-05-26T15:27:31.681Z,56.68
2019-05-26T15:30:02.978Z,56.30
2019-05-26T15:32:34.077Z,56.59
2019-05-26T15:35:08.858Z,56.71
2019-05-26T15:37:40.041Z,57.20
2019-05-26T15:40:11.198Z,57.09
2019-05-26T15:42:42.337Z,57.28
2019-05-26T15:45:13.806Z,57.27
2019-05-26T15:47:45.001Z,56.84
2019-05-26T15:50:16.319Z,56.54
2019-05-26T15:52:47.485Z,56.49
2019-05-26T15:55:18.634Z,56.23
2019-05-26T15:57:49.925Z,55.80
2019-05-26T16:00:21.165Z,55.73
2019-05-26T16:02:52.399Z,56.02
2019-05-26T16:05:23.587Z,56.06
2019-05-26T16:07:54.559Z,55.08
2019-05-26T16:10:25.669Z,54.80
2019-05-26T16:12:56.722Z,53.94
2019-05-26T16:15:30.577Z,54.38
2019-05-26T16:18:01.903Z,54.74
2019-05-26T16:20:33.135Z,55.27
2019-05-26T16:23:04.425Z,55.55
2019-05-26T16:25:35.775Z,55.50
2019-05-26T16:28:06.789Z,55.49
2019-05-26T16:30:38.076Z,55.78
2019-05-26T16:33:09.299Z,55.95
2019-05-26T16:35:40.590Z,56.11
2019-05-26T16:38:11.644Z,56.27
2019-05-26T16:40:42.670Z,56.29
2019-05-26T16:43:13.702Z,56.38
2019-05-26T16:45:55.717Z,56.61
2019-05-26T16:48:17.592Z,57.00
2019-05-26T16:50:48.851Z,57.30
2019-05-26T16:53:23.071Z,57.52
2019-05-26T16:55:54.421Z,58.15
2019-05-26T16:58:25.640Z,58.54
2019-05-26T17:00:56.956Z,58.43
2019-05-26T17:03:28.543Z,58.67
2019-05-26T17:06:08.061Z,58.78
2019-05-26T17:08:32.720Z,58.82
2019-05-26T17:11:03.996Z,59.17
2019-05-26T17:13:37.689Z,59.50
2019-05-26T17:16:08.933Z,59.90
2019-05-26T17:18:39.977Z,60.22
2019-05-26T17:21:11.135Z,60.06
2019-05-26T17:23:42.336Z,59.97
2019-05-26T17:26:13.723Z,60.01
2019-05-26T17:28:45.026Z,60.17
2019-05-26T17:31:16.271Z,60.34
2019-05-26T17:33:47.362Z,60.67
2019-05-26T17:36:18.431Z,60.46
2019-05-26T17:38:49.877Z,60.68
2019-05-26T17:41:21.151Z,61.26
2019-05-26T17:43:52.435Z,61.35
2019-05-26T17:46:36.276Z,61.78
2019-05-26T17:49:09.671Z,61.62
2019-05-26T17:51:40.936Z,61.76
2019-05-26T17:54:13.236Z,61.29
2019-05-26T17:56:44.470Z,61.03
2019-05-26T17:59:15.683Z,60.97
2019-05-26T18:01:47.241Z,60.86
2019-05-26T18:04:18.475Z,60.96
2019-05-26T18:06:50.037Z,61.07
2019-05-26T18:09:20.994Z,60.76
2019-05-26T18:11:52.374Z,60.85
2019-05-26T18:14:23.450Z,60.95
2019-05-26T18:16:54.718Z,61.25
2019-05-26T18:19:29.469Z,61.38
2019-05-26T18:21:58.522Z,61.53
2019-05-26T18:24:29.743Z,61.68
2019-05-26T18:27:01.003Z,61.91
2019-05-26T18:29:32.359Z,62.03
2019-05-26T18:32:19.177Z,62.26
2019-05-26T18:34:50.540Z,62.58
2019-05-26T18:37:22.451Z,62.71
2019-05-26T18:39:53.803Z,62.67
2019-05-26T18:42:28.135Z,62.85
2019-05-26T18:44:59.446Z,62.91
2019-05-26T18:47:32.509Z,62.90
2019-05-26T18:50:07.263Z,63.02
2019-05-26T18:52:38.973Z,62.90
2019-05-26T18:55:10.315Z,62.93
2019-05-26T18:57:45.787Z,63.03
2019-05-26T19:00:17.199Z,63.20
2019-05-26T19:02:52.452Z,63.34
2019-05-26T19:05:33.761Z,63.48
2019-05-26T19:08:04.333Z,63.68
2019-05-26T19:10:38.489Z,63.93
2019-05-26T19:13:10.721Z,64.25
2019-05-26T19:15:43.883Z,64.25
2019-05-26T19:18:20.034Z,64.56
2019-05-26T19:20:48.487Z,64.75
2019-05-26T19:23:20.268Z,64.87
2019-05-26T19:25:51.941Z,65.08
2019-05-26T19:28:23.488Z,65.03
2019-05-26T19:30:56.438Z,64.74
2019-05-26T19:33:27.735Z,64.44
2019-05-26T19:36:00.642Z,64.16
2019-05-26T19:38:31.944Z,63.87
2019-05-26T19:41:03.224Z,63.99
2019-05-26T19:43:34.616Z,63.83
2019-05-26T19:46:10.497Z,63.78
2019-05-26T19:48:44.587Z,63.71
2019-05-26T19:51:16.187Z,64.03
2019-05-26T19:53:47.691Z,64.07
2019-05-26T19:56:19.018Z,63.93
2019-05-26T19:58:50.304Z,63.98
2019-05-26T20:01:21.657Z,63.84
2019-05-26T20:03:52.960Z,64.44
2019-05-26T20:06:24.315Z,64.22
2019-05-26T20:08:55.741Z,64.20
2019-05-26T20:11:26.981Z,64.38
2019-05-26T20:13:59.157Z,64.37
2019-05-26T20:16:30.996Z,64.43
2019-05-26T20:19:02.606Z,64.51
2019-05-26T20:21:33.954Z,64.49
2019-05-26T20:24:06.541Z,64.36
2019-05-26T20:26:38.783Z,64.10
2019-05-26T20:29:10.074Z,63.76
2019-05-26T20:31:41.453Z,63.30
2019-05-26T20:34:12.825Z,62.66
2019-05-26T20:36:44.141Z,62.03
2019-05-26T20:39:15.533Z,61.42
2019-05-26T20:41:46.985Z,60.78
2019-05-26T20:44:18.388Z,60.12
2019-05-26T20:46:52.847Z,59.68
2019-05-26T20:49:44.855Z,59.20
2019-05-26T20:52:07.316Z,58.97
2019-05-26T20:54:38.882Z,58.80
2019-05-26T20:57:10.369Z,58.46
2019-05-26T20:59:42.836Z,57.96
2019-05-26T21:02:15.458Z,57.74
2019-05-26T21:04:46.815Z,57.65
2019-05-26T21:07:18.138Z,57.46
2019-05-26T21:09:49.438Z,57.51
2019-05-26T21:12:20.793Z,57.57
2019-05-26T21:14:52.128Z,57.47
2019-05-26T21:17:23.478Z,57.67
2019-05-26T21:19:54.963Z,57.66
2019-05-26T21:22:26.344Z,57.69
2019-05-26T21:24:57.594Z,57.66
2019-05-26T21:27:29.247Z,57.50
2019-05-26T21:30:00.733Z,57.47
2019-05-26T21:32:32.035Z,57.43
2019-05-26T21:35:04.297Z,57.48
2019-05-26T21:37:35.601Z,57.56
2019-05-26T21:40:08.493Z,57.51
2019-05-26T21:42:39.826Z,57.72
2019-05-26T21:45:11.223Z,57.72
2019-05-26T21:47:42.760Z,57.68
2019-05-26T21:50:14.349Z,57.76
2019-05-26T21:52:45.671Z,57.98
2019-05-26T21:55:17.094Z,58.04
2019-05-26T21:57:48.423Z,58.01
2019-05-26T22:00:22.093Z,58.00
2019-05-26T22:02:56.246Z,58.10
2019-05-26T22:05:29.749Z,58.06
2019-05-26T22:08:01.128Z,58.09
2019-05-26T22:10:32.440Z,58.01
2019-05-26T22:13:03.736Z,57.94
2019-05-26T22:18:45.473Z,57.09
2019-05-26T22:21:26.631Z,56.73
2019-05-26T22:23:57.866Z,56.76
2019-05-26T22:26:29.239Z,56.73
2019-05-26T22:29:00.474Z,56.68
2019-05-26T22:31:31.810Z,56.50
2019-05-26T22:34:03.169Z,56.73
2019-05-26T22:36:34.502Z,56.74
2019-05-26T22:39:06.933Z,56.59
2019-05-26T22:41:38.262Z,56.48
2019-05-26T22:44:09.518Z,56.60
2019-05-26T22:46:41.222Z,56.59
2019-05-26T22:49:12.444Z,56.37
2019-05-26T22:51:43.698Z,56.24
2019-05-26T22:54:14.915Z,56.04
2019-05-26T22:56:46.199Z,55.82
2019-05-26T22:59:17.431Z,55.71
2019-05-26T23:01:48.693Z,55.60
2019-05-26T23:04:20.018Z,55.77
2019-05-26T23:06:51.283Z,55.33
2019-05-26T23:09:22.525Z,55.05
2019-05-26T23:11:53.765Z,55.08
2019-05-26T23:14:25.023Z,54.96
2019-05-26T23:16:56.313Z,54.66
2019-05-26T23:19:27.565Z,54.72
2019-05-26T23:21:58.888Z,54.72
2019-05-26T23:24:30.199Z,54.62
2019-05-26T23:27:01.478Z,54.63
2019-05-26T23:29:32.699Z,54.60
2019-05-26T23:32:04.054Z,54.62
2019-05-26T23:34:35.204Z,54.62
2019-05-26T23:37:06.962Z,54.69
2019-05-26T23:39:38.487Z,54.62
2019-05-26T23:42:09.656Z,54.81
2019-05-26T23:44:40.714Z,54.78
2019-05-26T23:47:11.883Z,54.94
2019-05-26T23:49:44.178Z,55.20
2019-05-26T23:52:19.183Z,55.32
2019-05-26T23:54:48.626Z,55.28
2019-05-26T23:57:19.737Z,55.38
2019-05-26T23:59:50.855Z,55.47
